Norup, Denmark
Current Conditions -  °F | °C
As of 10:20 PM on Sunday 23 Nov 2014 (Local Time) from EKBI Reporting Station
Broken Clouds Broken Clouds  
Wind Chill: 41°   Ceiling: 9000
Heat Index: 46°   Visibility: 5mi
Dew Point: 43°   Wind: 12mph
Humidity: 87%   Direction: 130°SE
Pressure: 29.88"   Gusts: NA
Location:  55.72°N, 9.32°E
Report Text: EKBI 232120Z 13010KT 100V160 8000 FEW010 SCT045 BKN090 08/06 Q1012
Loading
Personal Weather Stations






























Interactive Weather Map New forecast layout! Learn more

10-Day Weather Forecast

Advertisements
Track Severe Weather on mobile